Time;durP1;ratioP1;P1;durP2;ratioP2;P2;SDS_P1;SDS_P2;PMS_P1;PMS_P2;Temp;Humidity;BMP_temperature;BMP_pressure;BME280_temperature;BME280_humidity;BME280_pressure;Samples;Min_cycle;Max_cycle;Signal;HPM_P1;HPM_P2
2023/03/14 00:02:41;;;;;;;;;;;;;;;8.11;68.59;98473.41;134118;1297;23267;-79
2023/03/14 00:05:45;;;;;;;;;;;;;;;7.95;68.75;98478.11;134116;1297;22459;-79
2023/03/14 00:08:53;;;;;;;;;;;;;;;7.80;68.94;98486.72;134107;1297;22448;-79
2023/03/14 00:11:57;;;;;;;;;;;;;;;7.66;69.23;98479.09;134146;1297;22512;-79
2023/03/14 00:14:57;;;;;;;;;;;;;;;7.57;69.60;98462.08;134127;1297;22471;-78
2023/03/14 00:18:19;;;;;;;;;;;;;;;7.52;69.95;98452.08;134105;1297;22445;-79
2023/03/14 00:21:20;;;;;;;;;;;;;;;7.42;70.06;98442.84;134150;1297;22418;-79
2023/03/14 00:24:24;;;;;;;;;;;;;;;7.35;70.20;98443.98;134115;1297;23180;-79
2023/03/14 00:27:25;;;;;;;;;;;;;;;7.29;70.37;98442.17;134127;1298;22456;-79
2023/03/14 00:30:28;;;;;;;;;;;;;;;7.23;70.45;98437.77;134123;1297;23163;-79
2023/03/14 00:33:29;;;;;;;;;;;;;;;7.18;70.82;98433.34;134034;1298;23280;-79
2023/03/14 00:36:30;;;;;;;;;;;;;;;7.14;70.99;98432.94;134116;1304;22538;-79
2023/03/14 00:39:34;;;;;;;;;;;;;;;7.11;71.19;98430.67;133911;1300;23274;-79
2023/03/14 00:42:37;;;;;;;;;;;;;;;7.09;71.32;98429.94;134134;1297;22437;-79
2023/03/14 00:45:40;;;;;;;;;;;;;;;7.07;71.49;98427.12;134148;1297;22446;-79
2023/03/14 00:48:41;;;;;;;;;;;;;;;7.07;71.54;98423.35;134100;1297;23191;-79
2023/03/14 00:51:44;;;;;;;;;;;;;;;7.02;71.53;98421.30;134136;1297;22449;-79
2023/03/14 00:54:45;;;;;;;;;;;;;;;6.96;71.68;98423.17;134116;1305;22460;-79
2023/03/14 00:57:48;;;;;;;;;;;;;;;6.90;71.93;98429.91;134119;1297;23219;-79
2023/03/14 01:00:48;;;;;;;;;;;;;;;6.88;72.23;98440.85;133905;1300;22471;-79
2023/03/14 01:03:52;;;;;;;;;;;;;;;6.86;72.34;98445.54;134046;1300;23172;-79
2023/03/14 01:06:53;;;;;;;;;;;;;;;6.85;72.54;98440.77;134123;1297;22541;-79
2023/03/14 01:09:54;;;;;;;;;;;;;;;6.83;72.67;98432.80;134138;1297;22432;-79
2023/03/14 01:12:54;;;;;;;;;;;;;;;6.82;72.87;98421.71;134123;1298;23094;-79
2023/03/14 01:15:55;;;;;;;;;;;;;;;6.83;72.97;98432.67;133933;1300;23218;-79
2023/03/14 01:18:56;;;;;;;;;;;;;;;6.84;73.28;98484.73;134114;1297;22450;-79
2023/03/14 01:22:00;;;;;;;;;;;;;;;6.80;73.43;98490.02;133945;1297;23228;-79
2023/03/14 01:25:00;;;;;;;;;;;;;;;6.78;73.63;98479.55;134037;1299;22470;-79
2023/03/14 01:28:08;;;;;;;;;;;;;;;6.79;73.94;98483.60;134162;1297;22478;-79
2023/03/14 01:31:11;;;;;;;;;;;;;;;6.83;73.94;98483.33;134038;1298;22606;-79
2023/03/14 01:34:14;;;;;;;;;;;;;;;6.85;74.27;98489.94;134128;1297;22447;-78
2023/03/14 01:37:36;;;;;;;;;;;;;;;6.85;74.71;98470.99;133909;1297;22495;-79
2023/03/14 01:40:43;;;;;;;;;;;;;;;6.85;74.89;98453.95;134033;1298;22447;-79
2023/03/14 01:43:47;;;;;;;;;;;;;;;6.84;75.47;98440.08;133982;1297;23086;-78
2023/03/14 01:46:48;;;;;;;;;;;;;;;6.87;75.42;98433.05;134048;1304;22426;-79
2023/03/14 01:49:53;;;;;;;;;;;;;;;6.96;75.38;98428.73;134053;1291;22461;-79
2023/03/14 01:52:55;;;;;;;;;;;;;;;7.07;75.31;98418.68;134121;1298;22435;-79
2023/03/14 01:55:56;;;;;;;;;;;;;;;7.18;74.99;98407.69;134099;1297;22461;-79
2023/03/14 01:58:57;;;;;;;;;;;;;;;7.26;75.16;98377.54;133963;1298;22453;-79
2023/03/14 02:01:59;;;;;;;;;;;;;;;7.26;75.23;98370.02;133944;1300;22438;-79
2023/03/14 02:05:03;;;;;;;;;;;;;;;7.28;75.41;98390.30;134029;1297;22540;-79
2023/03/14 02:08:12;;;;;;;;;;;;;;;7.37;75.35;98388.55;134029;1298;22443;-78
2023/03/14 02:11:21;;;;;;;;;;;;;;;7.41;75.16;98358.10;134021;1298;22446;-78
2023/03/14 02:14:34;;;;;;;;;;;;;;;7.46;75.19;98326.08;133946;1304;22464;-78
2023/03/14 02:17:53;;;;;;;;;;;;;;;7.47;75.34;98329.05;133915;1298;22455;-79
2023/03/14 02:21:16;;;;;;;;;;;;;;;7.51;75.18;98321.50;133990;1298;22536;-79
2023/03/14 02:24:22;;;;;;;;;;;;;;;7.56;75.09;98317.68;134119;1297;22612;-79
2023/03/14 02:27:28;;;;;;;;;;;;;;;7.61;75.11;98311.09;133921;1297;23116;-79
2023/03/14 02:30:30;;;;;;;;;;;;;;;7.65;75.00;98312.70;133922;1298;153273;-79
2023/03/14 02:33:32;;;;;;;;;;;;;;;7.69;74.87;98307.73;133911;1297;22464;-79
2023/03/14 02:36:32;;;;;;;;;;;;;;;7.73;74.57;98305.70;133923;1298;22441;-79
2023/03/14 02:39:41;;;;;;;;;;;;;;;7.83;74.02;98295.90;133892;1300;22405;-79
2023/03/14 02:42:42;;;;;;;;;;;;;;;7.98;73.40;98291.88;134129;1297;23532;-79
2023/03/14 02:45:44;;;;;;;;;;;;;;;8.14;72.61;98291.77;134139;1297;22432;-79
2023/03/14 02:48:50;;;;;;;;;;;;;;;8.32;71.82;98288.05;133903;1298;23109;-79
2023/03/14 02:51:51;;;;;;;;;;;;;;;8.47;70.99;98286.29;133988;1298;22437;-79
2023/03/14 02:55:02;;;;;;;;;;;;;;;;;;;;;
2023/03/14 02:58:07;;;;;;;;;;;;;;;8.73;69.64;98267.66;134049;1300;22461;-79
2023/03/14 03:01:08;;;;;;;;;;;;;;;8.81;69.48;98267.71;134028;1298;22447;-80
2023/03/14 03:04:31;;;;;;;;;;;;;;;8.84;69.36;98273.39;134141;1297;22932;-79
2023/03/14 03:07:40;;;;;;;;;;;;;;;8.87;69.04;98278.35;134143;1297;22502;-79
2023/03/14 03:10:41;;;;;;;;;;;;;;;8.89;68.70;98267.46;134125;1297;22420;-78
2023/03/14 03:13:41;;;;;;;;;;;;;;;8.90;68.80;98266.08;133948;1298;22507;-79
2023/03/14 03:17:03;;;;;;;;;;;;;;;8.91;67.94;98247.14;134040;1298;22556;-79
2023/03/14 03:20:05;;;;;;;;;;;;;;;8.95;67.65;98227.30;133894;1298;22492;-79
2023/03/14 03:23:06;;;;;;;;;;;;;;;9.00;67.28;98221.12;134129;1297;22459;-79
2023/03/14 03:26:12;;;;;;;;;;;;;;;9.04;67.18;98209.95;134002;1298;22446;-78
2023/03/14 03:29:16;;;;;;;;;;;;;;;9.10;66.67;98207.52;134115;1298;23231;-79
2023/03/14 03:32:27;;;;;;;;;;;;;;;;;;;;;
2023/03/14 03:35:50;;;;;;;;;;;;;;;9.29;65.97;98189.52;134127;1295;22453;-79
2023/03/14 03:39:10;;;;;;;;;;;;;;;;;;;;;
2023/03/14 03:42:44;;;;;;;;;;;;;;;;;;;;;
2023/03/14 03:45:49;;;;;;;;;;;;;;;9.55;65.12;98167.85;133988;1298;22600;-79
2023/03/14 03:49:24;;;;;;;;;;;;;;;;;;;;;
2023/03/14 03:52:28;;;;;;;;;;;;;;;9.60;65.44;98163.51;133879;1300;22452;-79
2023/03/14 03:55:42;;;;;;;;;;;;;;;9.61;65.34;98166.85;133896;1300;22468;-80
2023/03/14 03:59:07;;;;;;;;;;;;;;;9.63;65.39;98152.31;133900;1298;22453;-79
2023/03/14 04:02:59;;;;;;;;;;;;;;;9.64;65.42;98131.81;134102;1297;22603;-79
2023/03/14 04:06:20;;;;;;;;;;;;;;;9.66;65.16;98121.54;133883;1300;22460;-79
2023/03/14 04:09:30;;;;;;;;;;;;;;;9.69;64.79;98114.60;134053;1298;22455;-79
2023/03/14 04:12:57;;;;;;;;;;;;;;;9.73;64.97;98129.53;133897;1298;22447;-79
2023/03/14 04:16:04;;;;;;;;;;;;;;;9.76;64.98;98145.21;134030;1301;23188;-79
2023/03/14 04:19:07;;;;;;;;;;;;;;;9.78;65.04;98158.90;134143;1297;22453;-80
2023/03/14 04:22:28;;;;;;;;;;;;;;;9.80;64.84;98156.01;134142;1298;22424;-81
2023/03/14 04:25:31;;;;;;;;;;;;;;;9.81;64.93;98151.02;133893;1297;22466;-79
2023/03/14 04:28:38;;;;;;;;;;;;;;;9.80;64.78;98140.20;133917;1300;22433;-80
2023/03/14 04:31:42;;;;;;;;;;;;;;;9.80;64.51;98130.17;134015;1300;22441;-80
2023/03/14 04:34:43;;;;;;;;;;;;;;;9.83;64.56;98129.51;133888;1299;22549;-80
2023/03/14 04:37:52;;;;;;;;;;;;;;;9.86;64.33;98114.81;134150;1298;23354;-80
2023/03/14 04:40:53;;;;;;;;;;;;;;;9.95;64.38;98108.42;133908;1298;22434;-79
2023/03/14 04:43:59;;;;;;;;;;;;;;;9.99;64.15;98114.43;133905;1287;22435;-80
2023/03/14 04:47:00;;;;;;;;;;;;;;;9.97;64.36;98110.68;133843;1301;23279;-80
2023/03/14 04:50:01;;;;;;;;;;;;;;;9.97;64.47;98084.56;133937;1300;23239;-79
2023/03/14 04:53:02;;;;;;;;;;;;;;;9.98;64.32;98081.98;133953;1299;22422;-79
2023/03/14 04:56:04;;;;;;;;;;;;;;;10.01;64.32;98079.98;133950;1300;22468;-80
2023/03/14 04:59:12;;;;;;;;;;;;;;;10.04;63.81;98082.29;134118;1298;22563;-79
2023/03/14 05:02:18;;;;;;;;;;;;;;;10.08;63.63;98086.52;133900;1304;23083;-79
2023/03/14 05:05:33;;;;;;;;;;;;;;;10.11;63.84;98099.03;133913;1299;22483;-79
2023/03/14 05:08:39;;;;;;;;;;;;;;;10.11;63.92;98106.51;134168;1298;23168;-80
2023/03/14 05:12:00;;;;;;;;;;;;;;;10.12;63.56;98083.42;133756;1298;22469;-80
2023/03/14 05:15:03;;;;;;;;;;;;;;;10.15;62.92;98085.44;134097;1300;22532;-80
2023/03/14 05:18:18;;;;;;;;;;;;;;;10.22;62.99;98083.72;133914;1301;22514;-80
2023/03/14 05:21:59;;;;;;;;;;;;;;;10.26;63.23;98091.29;133283;1298;22475;-79
2023/03/14 05:25:24;;;;;;;;;;;;;;;10.28;63.21;98087.06;134042;1299;23108;-79
2023/03/14 05:28:42;;;;;;;;;;;;;;;10.27;63.29;98085.66;133887;1304;22447;-79
2023/03/14 05:32:06;;;;;;;;;;;;;;;;;;;;;
2023/03/14 05:35:35;;;;;;;;;;;;;;;10.26;63.37;98076.20;133480;1304;23114;-78
2023/03/14 05:39:04;;;;;;;;;;;;;;;10.22;63.48;98068.23;134118;1297;22549;-78
2023/03/14 05:42:40;;;;;;;;;;;;;;;10.19;63.47;98058.05;134139;1298;22444;-80
2023/03/14 05:45:59;;;;;;;;;;;;;;;10.13;63.74;98066.82;134134;1298;23259;-80
2023/03/14 05:49:20;;;;;;;;;;;;;;;10.06;64.19;98070.92;133970;1298;22484;-79
2023/03/14 05:52:56;;;;;;;;;;;;;;;10.00;64.25;98083.52;133904;1298;22418;-80
2023/03/14 05:56:16;;;;;;;;;;;;;;;9.97;64.30;98093.17;134141;1298;22466;-84
2023/03/14 05:59:48;;;;;;;;;;;;;;;9.94;64.48;98101.95;133347;1302;22481;-85
2023/03/14 06:03:18;;;;;;;;;;;;;;;9.93;64.41;98095.63;133937;1292;22450;-81
2023/03/14 06:06:21;;;;;;;;;;;;;;;9.93;64.29;98091.71;133928;1298;22450;-83
2023/03/14 06:09:23;;;;;;;;;;;;;;;9.95;64.18;98089.55;134015;1301;23262;-83
2023/03/14 06:12:53;;;;;;;;;;;;;;;;;;;;;
2023/03/14 06:16:12;;;;;;;;;;;;;;;10.04;64.44;98086.15;134114;1298;22482;-83
2023/03/14 06:19:33;;;;;;;;;;;;;;;10.13;64.10;98102.16;134098;1298;22525;-83
2023/03/14 06:22:34;;;;;;;;;;;;;;;10.21;64.10;98109.90;134038;1303;22452;-83
2023/03/14 06:25:36;;;;;;;;;;;;;;;10.26;63.74;98099.15;134044;1299;22458;-83
2023/03/14 06:28:37;;;;;;;;;;;;;;;10.25;63.59;98098.17;133898;1301;22465;-84
2023/03/14 06:31:38;;;;;;;;;;;;;;;10.22;63.39;98098.36;134037;1302;22451;-83
2023/03/14 06:34:40;;;;;;;;;;;;;;;10.20;63.39;98101.88;134051;1298;22480;-84
2023/03/14 06:38:30;;;;;;;;;;;;;;;10.21;63.69;98111.38;134013;1298;22456;-83
2023/03/14 06:41:26;;;;;;;;;;;;;;;10.27;63.48;98125.02;134048;1298;22501;-84
2023/03/14 06:44:30;;;;;;;;;;;;;;;10.43;63.18;98124.73;133914;1302;22475;-84
2023/03/14 06:47:57;;;;;;;;;;;;;;;10.66;63.35;98123.57;133963;1299;22502;-83
2023/03/14 06:51:00;;;;;;;;;;;;;;;10.84;63.05;98119.85;134021;1299;22476;-84
2023/03/14 06:54:31;;;;;;;;;;;;;;;10.90;62.30;98109.27;134098;1298;22452;-84
2023/03/14 06:57:31;;;;;;;;;;;;;;;10.92;62.42;98111.45;134099;1298;23472;-84
2023/03/14 07:01:02;;;;;;;;;;;;;;;;;;;;;
2023/03/14 07:04:33;;;;;;;;;;;;;;;11.04;62.39;98131.30;134019;1299;23345;-84
2023/03/14 07:11:29;;;;;;;;;;;;;;;11.11;61.98;98120.90;134129;1298;22465;-84
2023/03/14 07:14:39;;;;;;;;;;;;;;;11.10;61.92;98119.29;134123;1298;22469;-84
2023/03/14 07:22:02;;;;;;;;;;;;;;;;;;;;;
2023/03/14 07:25:14;;;;;;;;;;;;;;;;;;;;;
2023/03/14 07:28:14;;;;;;;;;;;;;;;10.96;61.96;98146.77;133933;1299;22533;-84
2023/03/14 07:31:16;;;;;;;;;;;;;;;10.92;61.92;98162.64;133954;1304;22497;-84
2023/03/14 07:34:17;;;;;;;;;;;;;;;10.87;61.84;98172.48;133965;1299;22469;-85
2023/03/14 07:37:31;;;;;;;;;;;;;;;;;;;;;
2023/03/14 07:40:35;;;;;;;;;;;;;;;10.76;62.05;98173.94;133906;1301;22447;-84
2023/03/14 07:43:37;;;;;;;;;;;;;;;10.70;62.10;98161.95;133972;1298;23575;-84
2023/03/14 07:46:40;;;;;;;;;;;;;;;10.62;62.29;98147.15;134116;1298;22492;-85
2023/03/14 07:53:45;;;;;;;;;;;;;;;10.46;62.34;98129.80;133860;1298;23156;-84
2023/03/14 07:56:58;;;;;;;;;;;;;;;10.41;62.62;98124.63;134068;1297;22555;-83
2023/03/14 08:04:27;;;;;;;;;;;;;;;10.32;62.67;98129.40;134179;1297;22478;-85
2023/03/14 08:07:07;;;;;;;;;;;;;;;10.29;62.62;98137.66;133991;1299;22495;-84
2023/03/14 08:10:08;;;;;;;;;;;;;;;10.25;62.58;98128.65;134111;1298;22455;-81
2023/03/14 08:13:09;;;;;;;;;;;;;;;10.19;62.63;98106.98;133932;1301;23356;-84
2023/03/14 08:16:10;;;;;;;;;;;;;;;10.15;62.82;98101.55;134009;1298;22474;-84
2023/03/14 08:19:13;;;;;;;;;;;;;;;10.10;63.02;98108.05;134084;1297;23218;-84
2023/03/14 08:22:27;;;;;;;;;;;;;;;10.06;63.09;98113.48;134086;1298;23550;-83
2023/03/14 08:25:28;;;;;;;;;;;;;;;10.03;63.19;98115.38;134130;1297;22455;-84
2023/03/14 08:28:30;;;;;;;;;;;;;;;10.00;63.38;98122.66;134016;1298;23170;-83
2023/03/14 08:31:31;;;;;;;;;;;;;;;9.96;63.66;98123.73;134075;1298;22469;-84
2023/03/14 08:34:35;;;;;;;;;;;;;;;9.92;63.96;98117.11;134102;1298;22528;-84
2023/03/14 08:37:36;;;;;;;;;;;;;;;9.87;64.29;98139.14;134090;1298;23215;-85
2023/03/14 08:40:36;;;;;;;;;;;;;;;9.81;64.80;98149.48;134089;1297;22449;-82
2023/03/14 08:43:37;;;;;;;;;;;;;;;9.76;65.00;98154.27;134072;1298;22459;-85
2023/03/14 08:46:38;;;;;;;;;;;;;;;9.68;65.42;98159.22;134086;1298;22812;-83
2023/03/14 08:49:48;;;;;;;;;;;;;;;9.58;66.14;98165.36;134078;1305;22447;-81
2023/03/14 08:53:00;;;;;;;;;;;;;;;;;;;;;
2023/03/14 08:56:01;;;;;;;;;;;;;;;9.35;67.82;98187.88;134050;1297;22516;-82
2023/03/14 08:59:20;;;;;;;;;;;;;;;;;;;;;
2023/03/14 09:02:24;;;;;;;;;;;;;;;9.07;69.23;98190.55;134119;1297;22435;-81
2023/03/14 09:05:27;;;;;;;;;;;;;;;8.94;70.02;98191.20;134059;1298;22439;-81
2023/03/14 09:08:57;;;;;;;;;;;;;;;;;;;;;
2023/03/14 09:12:10;;;;;;;;;;;;;;;8.76;70.95;98206.92;133957;1297;23239;-80
2023/03/14 09:15:11;;;;;;;;;;;;;;;8.72;71.58;98210.15;134081;1298;23329;-81
2023/03/14 09:18:11;;;;;;;;;;;;;;;8.70;71.78;98208.13;134139;1294;22550;-81
2023/03/14 09:21:12;;;;;;;;;;;;;;;8.70;72.13;98200.52;134102;1297;23147;-82
2023/03/14 09:24:12;;;;;;;;;;;;;;;8.70;72.38;98189.88;134054;1297;22483;-82
2023/03/14 09:27:13;;;;;;;;;;;;;;;8.70;72.54;98191.54;134073;1297;22493;-82
2023/03/14 09:30:31;;;;;;;;;;;;;;;8.68;72.85;98194.36;133942;1298;23107;-82
2023/03/14 09:33:35;;;;;;;;;;;;;;;8.69;73.01;98198.00;134079;1297;23627;-82
2023/03/14 09:36:48;;;;;;;;;;;;;;;8.70;73.22;98190.45;134082;1297;22573;-83
2023/03/14 09:39:49;;;;;;;;;;;;;;;8.72;73.36;98203.80;133998;1298;23271;-83
2023/03/14 09:42:53;;;;;;;;;;;;;;;8.76;73.54;98213.35;134061;1297;22447;-82
2023/03/14 09:45:54;;;;;;;;;;;;;;;8.78;73.84;98213.93;134096;1297;22513;-81
2023/03/14 09:48:58;;;;;;;;;;;;;;;8.80;73.98;98221.70;133999;1301;22462;-82
2023/03/14 09:52:18;;;;;;;;;;;;;;;8.83;74.22;98224.16;134059;1298;22449;-81
2023/03/14 09:55:30;;;;;;;;;;;;;;;8.88;74.37;98229.52;134099;1297;23576;-80
2023/03/14 09:58:42;;;;;;;;;;;;;;;8.92;74.61;98243.82;134105;1302;22460;-83
2023/03/14 10:01:43;;;;;;;;;;;;;;;8.94;74.67;98251.14;134104;1298;22455;-83
2023/03/14 10:05:25;;;;;;;;;;;;;;;8.95;74.72;98250.98;134103;1297;22529;-83
2023/03/14 10:08:32;;;;;;;;;;;;;;;8.96;74.74;98254.48;134089;1298;22451;-83
2023/03/14 10:11:33;;;;;;;;;;;;;;;8.98;74.92;98260.63;134097;1295;22420;-81
2023/03/14 10:14:38;;;;;;;;;;;;;;;9.01;75.06;98257.17;134028;1298;22428;-81
2023/03/14 10:17:42;;;;;;;;;;;;;;;9.02;75.35;98255.44;134019;1298;22454;-81
2023/03/14 10:21:45;;;;;;;;;;;;;;;;;;;;;
2023/03/14 10:24:59;;;;;;;;;;;;;;;9.02;75.82;98245.66;133753;1297;22609;-81
2023/03/14 10:28:00;;;;;;;;;;;;;;;9.03;76.52;98238.04;134085;1297;23381;-80
2023/03/14 10:31:04;;;;;;;;;;;;;;;9.03;77.20;98236.00;134093;1297;22458;-80
2023/03/14 10:34:25;;;;;;;;;;;;;;;9.05;77.60;98239.76;134104;1297;23189;-79
2023/03/14 10:37:29;;;;;;;;;;;;;;;9.10;77.90;98230.77;134094;1298;23156;-81
2023/03/14 10:40:31;;;;;;;;;;;;;;;9.18;78.57;98226.23;134094;1297;22464;-81
2023/03/14 10:43:43;;;;;;;;;;;;;;;;;;;;;
2023/03/14 10:46:55;;;;;;;;;;;;;;;9.31;79.09;98207.76;134033;1298;22599;-82
2023/03/14 10:50:21;;;;;;;;;;;;;;;9.44;78.86;98206.27;134076;1304;23198;-82
2023/03/14 10:54:03;;;;;;;;;;;;;;;9.54;78.95;98206.79;134083;1297;22451;-83
2023/03/14 10:57:06;;;;;;;;;;;;;;;9.65;79.33;98196.13;134105;1297;23122;-83
2023/03/14 11:00:20;;;;;;;;;;;;;;;9.69;79.28;98194.37;134092;1297;22525;-82
2023/03/14 11:03:50;;;;;;;;;;;;;;;9.72;79.36;98200.92;134096;1297;22466;-83
2023/03/14 11:06:53;;;;;;;;;;;;;;;9.74;79.52;98200.36;134103;1297;22542;-83
2023/03/14 11:10:02;;;;;;;;;;;;;;;9.76;79.24;98211.63;134104;1297;22470;-83
2023/03/14 11:13:06;;;;;;;;;;;;;;;9.78;79.39;98212.60;134082;1297;23193;-84
2023/03/14 11:16:27;;;;;;;;;;;;;;;9.80;79.72;98206.12;134100;1297;23167;-80
2023/03/14 11:19:38;;;;;;;;;;;;;;;;;;;;;
2023/03/14 11:22:51;;;;;;;;;;;;;;;9.97;79.64;98208.39;134103;1297;22493;-83
2023/03/14 11:26:40;;;;;;;;;;;;;;;;;;;;;
2023/03/14 11:29:46;;;;;;;;;;;;;;;10.32;79.77;98206.27;134084;1299;22526;-83
2023/03/14 11:33:12;;;;;;;;;;;;;;;10.52;79.40;98196.63;134107;1297;22420;-83
2023/03/14 11:37:07;;;;;;;;;;;;;;;;;;;;;
2023/03/14 11:40:18;;;;;;;;;;;;;;;10.80;77.65;98185.09;134132;1297;22419;-83
2023/03/14 11:43:42;;;;;;;;;;;;;;;10.93;77.80;98177.86;134077;1297;23228;-84
2023/03/14 11:47:13;;;;;;;;;;;;;;;;;;;;;
2023/03/14 11:51:20;;;;;;;;;;;;;;;11.03;76.71;98173.81;134038;1297;22615;-83
2023/03/14 11:54:21;;;;;;;;;;;;;;;11.06;76.67;98178.09;133938;1298;22773;-83
2023/03/14 11:57:45;;;;;;;;;;;;;;;11.07;76.35;98179.06;133958;1298;22494;-82
2023/03/14 12:01:21;;;;;;;;;;;;;;;;;;;;;
2023/03/14 12:05:16;;;;;;;;;;;;;;;11.16;76.25;98166.44;134101;1297;22402;-82
2023/03/14 12:09:10;;;;;;;;;;;;;;;11.30;75.63;98156.36;134058;1297;22472;-83
2023/03/14 12:12:33;;;;;;;;;;;;;;;11.39;75.05;98164.27;134125;1297;22477;-82
2023/03/14 12:16:00;;;;;;;;;;;;;;;11.42;75.12;98174.77;134079;1297;22463;-83
2023/03/14 12:19:41;;;;;;;;;;;;;;;11.49;75.09;98167.92;133993;1297;22514;-83
2023/03/14 12:27:01;;;;;;;;;;;;;;;;;;;;;
2023/03/14 12:30:27;;;;;;;;;;;;;;;11.49;74.17;98161.88;134085;1297;22579;-83
2023/03/14 12:33:28;;;;;;;;;;;;;;;11.50;73.99;98155.99;133950;1297;22586;-83
2023/03/14 12:36:53;;;;;;;;;;;;;;;11.52;73.68;98147.14;134070;1297;22556;-81
2023/03/14 12:40:21;;;;;;;;;;;;;;;;;;;;;
2023/03/14 12:43:50;;;;;;;;;;;;;;;11.65;73.10;98133.02;134085;1304;25079;-83
2023/03/14 12:46:56;;;;;;;;;;;;;;;11.67;72.29;98138.75;134004;1297;22501;-83
2023/03/14 12:50:07;;;;;;;;;;;;;;;11.63;71.72;98144.81;134108;1298;22450;-83
2023/03/14 12:53:21;;;;;;;;;;;;;;;11.57;71.71;98144.10;134087;1297;23361;-81
2023/03/14 12:56:58;;;;;;;;;;;;;;;11.53;71.79;98145.37;134043;1297;22550;-82
2023/03/14 13:00:20;;;;;;;;;;;;;;;11.50;71.81;98143.31;134071;1297;22434;-83
2023/03/14 13:03:35;;;;;;;;;;;;;;;;;;;;;
2023/03/14 13:06:53;;;;;;;;;;;;;;;11.44;71.43;98139.79;134092;1298;22444;-83
2023/03/14 13:10:05;;;;;;;;;;;;;;;11.36;71.11;98140.77;134121;1297;22425;-83
2023/03/14 13:13:43;;;;;;;;;;;;;;;11.33;71.57;98144.23;134049;1301;22460;-83
2023/03/14 13:17:05;;;;;;;;;;;;;;;11.31;71.26;98139.06;134043;1298;22544;-83
2023/03/14 13:20:15;;;;;;;;;;;;;;;11.29;71.52;98134.33;133947;1297;22468;-82
2023/03/14 13:23:22;;;;;;;;;;;;;;;11.28;71.43;98127.08;134108;1297;23322;-83
2023/03/14 13:26:30;;;;;;;;;;;;;;;11.28;71.34;98128.73;134083;1297;22455;-82
2023/03/14 13:29:32;;;;;;;;;;;;;;;11.27;71.23;98125.74;134117;1297;23188;-82
2023/03/14 13:32:32;;;;;;;;;;;;;;;11.26;71.37;98123.84;134089;1297;22436;-83
2023/03/14 13:36:03;;;;;;;;;;;;;;;11.24;71.18;98123.58;134084;1297;23223;-81
2023/03/14 13:39:13;;;;;;;;;;;;;;;;;;;;;
2023/03/14 13:42:23;;;;;;;;;;;;;;;11.17;71.05;98126.17;134103;1297;22497;-82
2023/03/14 13:45:56;;;;;;;;;;;;;;;;;;;;;
2023/03/14 13:49:04;;;;;;;;;;;;;;;11.09;71.55;98124.92;134073;1297;22444;-81
2023/03/14 13:52:28;;;;;;;;;;;;;;;11.07;71.56;98132.08;134133;1297;22460;-83
2023/03/14 13:55:29;;;;;;;;;;;;;;;11.03;71.76;98135.04;134108;1297;22477;-82
2023/03/14 13:58:31;;;;;;;;;;;;;;;11.01;71.74;98131.99;134179;1297;22443;-83
2023/03/14 14:01:37;;;;;;;;;;;;;;;10.97;71.93;98131.90;134021;1297;23088;-82
2023/03/14 14:04:38;;;;;;;;;;;;;;;10.93;71.86;98126.88;134155;1297;22453;-83
2023/03/14 14:07:39;;;;;;;;;;;;;;;10.87;72.17;98128.43;134086;1297;23109;-82
2023/03/14 14:10:53;;;;;;;;;;;;;;;;;;;;;
2023/03/14 14:13:54;;;;;;;;;;;;;;;10.78;72.27;98123.11;134077;1298;22449;-83
2023/03/14 14:17:08;;;;;;;;;;;;;;;;;;;;;
2023/03/14 14:20:37;;;;;;;;;;;;;;;10.75;72.50;98120.33;134122;1297;22461;-83
2023/03/14 14:23:40;;;;;;;;;;;;;;;10.76;72.64;98117.48;134103;1298;22549;-83
2023/03/14 14:30:52;;;;;;;;;;;;;;;10.77;72.59;98110.06;132047;1297;2634318;-83
2023/03/14 14:33:58;;;;;;;;;;;;;;;10.77;72.44;98117.98;134126;1297;22420;-83
2023/03/14 14:37:13;;;;;;;;;;;;;;;10.78;72.55;98111.00;134038;1298;22600;-83
2023/03/14 14:40:27;;;;;;;;;;;;;;;10.80;72.68;98108.95;134113;1297;22415;-82
2023/03/14 14:43:30;;;;;;;;;;;;;;;10.82;72.43;98107.42;134109;1294;22432;-83
2023/03/14 14:46:35;;;;;;;;;;;;;;;10.84;72.42;98100.38;134132;1298;23224;-77
2023/03/14 14:49:39;;;;;;;;;;;;;;;10.87;72.27;98098.15;134101;1297;22466;-84
2023/03/14 14:53:00;;;;;;;;;;;;;;;10.91;72.22;98101.23;134097;1297;22469;-80
2023/03/14 14:56:06;;;;;;;;;;;;;;;10.94;72.34;98102.14;133988;1298;22464;-75
2023/03/14 14:59:28;;;;;;;;;;;;;;;10.96;72.24;98101.83;134116;1297;23189;-77
2023/03/14 15:02:45;;;;;;;;;;;;;;;10.98;71.94;98101.27;134114;1297;23104;-77
2023/03/14 15:06:15;;;;;;;;;;;;;;;10.99;71.99;98099.99;134118;1297;22556;-75
2023/03/14 15:09:34;;;;;;;;;;;;;;;10.99;71.79;98092.40;134032;1297;22475;-78
2023/03/14 15:12:47;;;;;;;;;;;;;;;10.98;71.90;98088.13;134100;1297;22459;-84
2023/03/14 15:15:49;;;;;;;;;;;;;;;10.98;71.80;98092.36;134111;1297;22466;-82
2023/03/14 15:19:05;;;;;;;;;;;;;;;10.97;71.75;98087.72;134122;1297;22490;-83
2023/03/14 15:22:11;;;;;;;;;;;;;;;10.96;71.77;98082.44;134058;1297;23327;-84
2023/03/14 15:25:18;;;;;;;;;;;;;;;10.95;71.82;98089.74;134081;1297;22464;-82
2023/03/14 15:28:31;;;;;;;;;;;;;;;10.98;72.05;98088.45;134024;1298;22426;-83
2023/03/14 15:31:32;;;;;;;;;;;;;;;11.02;71.94;98088.20;134116;1297;23422;-82
2023/03/14 15:34:33;;;;;;;;;;;;;;;11.09;71.80;98085.94;134106;1297;22501;-83
2023/03/14 15:37:56;;;;;;;;;;;;;;;11.14;71.59;98081.19;134100;1297;22486;-82
2023/03/14 15:44:48;;;;;;;;;;;;;;;11.37;71.32;98078.45;134090;1297;22473;-82
2023/03/14 15:48:15;;;;;;;;;;;;;;;11.43;70.95;98079.48;134092;1297;22661;-84
2023/03/14 15:51:16;;;;;;;;;;;;;;;11.42;71.03;98079.55;134097;1297;24871;-82
2023/03/14 15:54:39;;;;;;;;;;;;;;;11.40;71.08;98083.01;133973;1299;23228;-83
2023/03/14 16:01:15;;;;;;;;;;;;;;;11.35;71.04;98081.54;134032;1297;22450;-82
2023/03/14 16:04:46;;;;;;;;;;;;;;;;;;;;;
2023/03/14 16:07:50;;;;;;;;;;;;;;;11.31;70.77;98081.79;134057;1297;22551;-82
2023/03/14 16:11:11;;;;;;;;;;;;;;;11.30;70.71;98085.85;134136;1297;22514;-82
2023/03/14 16:14:14;;;;;;;;;;;;;;;11.30;70.67;98084.05;134100;1305;23346;-83
2023/03/14 16:17:14;;;;;;;;;;;;;;;11.30;70.55;98083.45;134106;1297;22468;-83
2023/03/14 16:20:36;;;;;;;;;;;;;;;11.28;70.62;98083.98;134146;1297;23203;-82
2023/03/14 16:23:59;;;;;;;;;;;;;;;11.26;70.62;98085.52;134073;1297;22507;-82
2023/03/14 16:27:12;;;;;;;;;;;;;;;11.23;70.83;98085.42;134129;1298;23175;-82
2023/03/14 16:30:16;;;;;;;;;;;;;;;11.20;70.80;98084.64;133907;1297;22454;-82
2023/03/14 16:33:17;;;;;;;;;;;;;;;11.18;70.79;98083.67;134126;1297;22479;-82
2023/03/14 16:36:18;;;;;;;;;;;;;;;11.16;70.73;98090.68;134062;1300;22522;-82
2023/03/14 16:39:33;;;;;;;;;;;;;;;;;;;;;
2023/03/14 16:42:37;;;;;;;;;;;;;;;11.11;70.79;98094.83;134155;1297;22461;-82
2023/03/14 16:45:40;;;;;;;;;;;;;;;11.09;70.91;98095.16;134086;1305;23084;-82
2023/03/14 16:48:47;;;;;;;;;;;;;;;11.09;70.73;98096.52;134055;1298;22573;-82
2023/03/14 16:51:48;;;;;;;;;;;;;;;11.09;70.67;98101.73;134109;1297;22461;-83
2023/03/14 16:55:10;;;;;;;;;;;;;;;;;;;;;
2023/03/14 18:31:21;;;;;;;;;;;;;;;9.93;71.40;98174.54;134126;1297;23850;-79
2023/03/14 18:34:22;;;;;;;;;;;;;;;9.91;71.50;98179.23;134121;1297;22624;-79
2023/03/14 18:37:22;;;;;;;;;;;;;;;9.87;71.41;98185.67;134132;1298;22514;-79
2023/03/14 18:40:23;;;;;;;;;;;;;;;9.84;71.39;98188.74;134160;1297;22445;-79
2023/03/14 18:43:27;;;;;;;;;;;;;;;9.83;71.64;98186.51;134127;1297;22439;-80
2023/03/14 18:46:31;;;;;;;;;;;;;;;9.82;71.87;98187.86;134078;1298;22530;-79
2023/03/14 18:49:32;;;;;;;;;;;;;;;9.79;71.97;98187.45;134148;1297;23108;-79
2023/03/14 18:52:53;;;;;;;;;;;;;;;9.76;71.94;98184.95;133991;1297;22481;-80
2023/03/14 18:55:54;;;;;;;;;;;;;;;9.73;71.97;98185.08;134133;1297;22522;-75
2023/03/14 18:59:18;;;;;;;;;;;;;;;9.74;72.17;98188.30;134128;1291;22547;-79
2023/03/14 19:02:52;;;;;;;;;;;;;;;;;;;;;
2023/03/14 19:05:58;;;;;;;;;;;;;;;9.70;72.28;98191.92;134121;1297;22488;-81
2023/03/14 19:09:04;;;;;;;;;;;;;;;9.69;72.38;98194.21;134039;1294;22469;-81
2023/03/14 19:12:28;;;;;;;;;;;;;;;9.67;72.57;98192.66;134162;1297;22469;-81
2023/03/14 19:15:49;;;;;;;;;;;;;;;9.65;72.65;98190.64;133959;1297;22496;-81
2023/03/14 19:18:54;;;;;;;;;;;;;;;9.62;72.47;98197.56;134068;1297;22582;-80
2023/03/14 19:21:57;;;;;;;;;;;;;;;9.59;72.69;98198.77;134078;1297;22647;-81